Terminal Aerodrome Forecast
Issued by NWS

Home | Current Version | Previous Version | Text Only | Print | Product List | Glossary On
Versions: 1 2 3 4 5 6 7 8 9 10 11 12 13 14 15 16 17 18 19 20 21 22 23 24 25
000
FTUS41 KALY 312300
TAFPSF
TAF
KPSF 312327Z 0100/0124 29005KT P6SM SKC
     FM010300 VRB03KT P6SM SCT050 SCT250
     FM011000 30003KT P6SM BKN040 BKN050
     FM011500 30005KT P6SM BKN035 BKN250
     FM012200 30006KT P6SM VCSH BKN020 OVC080=

USA.gov is the U.S. government's official web portal to all federal, state and local government web resources and services.